Time;durP1;ratioP1;P1;durP2;ratioP2;P2;SDS_P1;SDS_P2;PMS_P1;PMS_P2;Temp;Humidity;BMP_temperature;BMP_pressure;BME280_temperature;BME280_humidity;BME280_pressure;Samples;Min_cycle;Max_cycle;Signal;HPM_P1;HPM_P2
2023/12/23 00:02:53;;;;;;;0.90;0.43;;;12.30;70.50;;;;;;7757308;22;20015;-76
2023/12/23 00:05:56;;;;;;;3.08;0.50;;;12.30;70.30;;;;;;7758039;22;20432;-77
2023/12/23 00:08:58;;;;;;;1.55;0.70;;;12.40;69.90;;;;;;7782464;22;20018;-76
2023/12/23 00:11:59;;;;;;;4.13;0.73;;;12.40;69.70;;;;;;7757320;22;20003;-76
2023/12/23 00:15:00;;;;;;;1.55;0.52;;;12.50;69.50;;;;;;7756970;22;20421;-76
2023/12/23 00:18:01;;;;;;;3.42;0.82;;;12.50;70.00;;;;;;7782495;22;20409;-76
2023/12/23 00:21:03;;;;;;;4.70;0.95;;;12.50;68.70;;;;;;7782399;22;20075;-76
2023/12/23 00:24:05;;;;;;;1.95;0.50;;;12.50;68.40;;;;;;7810274;22;20045;-76
2023/12/23 00:27:05;;;;;;;5.47;0.93;;;12.50;67.90;;;;;;7757380;22;20003;-76
2023/12/23 00:30:08;;;;;;;3.15;0.75;;;12.50;67.90;;;;;;7755829;22;20014;-76
2023/12/23 00:33:09;;;;;;;1.45;0.70;;;12.60;67.90;;;;;;7756309;22;20081;-76
2023/12/23 00:36:11;;;;;;;3.33;0.93;;;12.60;67.70;;;;;;7732215;22;20007;-76
2023/12/23 00:39:15;;;;;;;4.22;0.60;;;12.60;67.60;;;;;;7756309;22;20447;-76
2023/12/23 00:42:15;;;;;;;1.27;0.57;;;12.60;67.50;;;;;;7782570;22;20047;-76
2023/12/23 00:45:17;;;;;;;0.55;0.40;;;12.60;67.40;;;;;;7782332;22;20398;-77
2023/12/23 00:48:18;;;;;;;0.35;0.30;;;12.60;67.60;;;;;;7781799;22;20091;-74
2023/12/23 00:51:19;;;;;;;0.52;0.30;;;12.60;67.80;;;;;;7782746;22;20082;-77
2023/12/23 00:54:23;;;;;;;1.05;0.50;;;12.60;68.00;;;;;;7757436;22;20684;-77
2023/12/23 00:57:24;;;;;;;0.45;0.45;;;12.60;68.10;;;;;;7756897;22;20011;-76
2023/12/23 01:00:25;;;;;;;1.15;0.40;;;12.60;67.80;;;;;;7810243;22;19999;-76
2023/12/23 01:03:27;;;;;;;8.60;0.98;;;12.60;67.50;;;;;;7812477;22;20025;-75
2023/12/23 01:06:27;;;;;;;4.68;0.75;;;12.60;67.30;;;;;;7785568;22;20003;-77
2023/12/23 01:09:28;;;;;;;0.75;0.43;;;12.60;67.30;;;;;;7758821;22;20336;-77
2023/12/23 01:12:29;;;;;;;0.90;0.63;;;12.60;67.10;;;;;;7758861;22;20068;-76
2023/12/23 01:15:30;;;;;;;3.92;0.50;;;12.60;67.10;;;;;;7784615;22;20011;-77
2023/12/23 01:18:32;;;;;;;3.60;0.65;;;12.60;67.30;;;;;;7758808;22;20039;-77
2023/12/23 01:21:33;;;;;;;2.55;0.55;;;12.50;67.20;;;;;;7759985;22;20011;-76
2023/12/23 01:24:34;;;;;;;1.65;0.38;;;12.50;67.00;;;;;;7784460;22;19999;-76
2023/12/23 01:27:35;;;;;;;2.38;1.05;;;12.50;67.10;;;;;;7759466;22;20185;-77
2023/12/23 01:30:36;;;;;;;1.05;0.70;;;12.40;66.90;;;;;;7812052;22;20011;-76
2023/12/23 01:33:37;;;;;;;1.50;0.77;;;12.40;67.00;;;;;;7758155;22;20056;-76
2023/12/23 01:36:39;;;;;;;2.60;0.77;;;12.40;67.10;;;;;;7759174;22;20082;-76
2023/12/23 01:39:41;;;;;;;1.17;0.57;;;12.40;67.10;;;;;;7811852;22;20340;-75
2023/12/23 01:42:43;;;;;;;1.40;0.60;;;12.40;67.20;;;;;;7759077;22;20003;-76
2023/12/23 01:45:43;;;;;;;5.38;1.27;;;12.40;67.20;;;;;;7812143;22;20561;-76
2023/12/23 01:48:44;;;;;;;8.13;0.68;;;12.40;67.50;;;;;;7782854;22;20074;-76
2023/12/23 01:51:46;;;;;;;4.97;0.57;;;12.40;67.70;;;;;;7783106;22;20023;-76
2023/12/23 01:54:46;;;;;;;3.28;0.77;;;12.40;67.80;;;;;;7783943;22;20428;-77
2023/12/23 01:57:47;;;;;;;3.22;1.35;;;12.40;67.80;;;;;;7759349;22;20007;-78
2023/12/23 02:00:50;;;;;;;0.88;0.32;;;12.40;67.80;;;;;;7785966;22;19995;-77
2023/12/23 02:03:51;;;;;;;0.28;0.20;;;12.40;67.60;;;;;;7813814;22;20022;-76
2023/12/23 02:06:52;;;;;;;1.55;0.68;;;12.40;67.30;;;;;;7784846;22;20082;-75
2023/12/23 02:09:53;;;;;;;1.17;0.40;;;12.40;67.40;;;;;;7784568;22;20463;-76
2023/12/23 02:13:13;;;;;;;1.83;0.30;;;12.40;67.40;;;;;;7785040;22;20007;-77
2023/12/23 02:16:14;;;;;;;2.58;0.43;;;12.40;67.50;;;;;;7783803;22;20413;-76
2023/12/23 02:19:15;;;;;;;5.00;0.77;;;12.40;67.40;;;;;;7758609;22;20110;-77
2023/12/23 02:22:17;;;;;;;6.85;0.50;;;12.40;67.20;;;;;;7783504;22;20025;-77
2023/12/23 02:25:19;;;;;;;4.68;0.88;;;12.40;67.30;;;;;;7783773;22;20007;-76
2023/12/23 02:28:22;;;;;;;1.73;0.68;;;12.40;67.20;;;;;;7783839;22;20003;-77
2023/12/23 02:31:23;;;;;;;1.45;0.65;;;12.40;67.20;;;;;;7758120;22;20066;-76
2023/12/23 02:34:25;;;;;;;1.33;0.40;;;12.40;67.00;;;;;;7811888;22;20456;-76
2023/12/23 02:37:27;;;;;;;2.28;0.63;;;12.40;66.90;;;;;;7783808;22;19996;-77
2023/12/23 02:40:30;;;;;;;3.15;0.68;;;12.40;67.00;;;;;;7783018;22;20010;-75
2023/12/23 02:43:31;;;;;;;2.35;0.60;;;12.40;66.90;;;;;;7783751;22;20051;-77
2023/12/23 02:46:31;;;;;;;0.98;0.43;;;12.30;66.80;;;;;;7783405;22;20389;-77
2023/12/23 02:49:32;;;;;;;0.80;0.40;;;12.30;66.80;;;;;;7758467;22;20128;-77
2023/12/23 02:52:33;;;;;;;3.90;0.50;;;12.30;67.00;;;;;;7811285;22;20037;-78
2023/12/23 02:55:35;;;;;;;3.80;0.68;;;12.30;66.90;;;;;;7811468;22;20389;-77
2023/12/23 02:58:36;;;;;;;0.88;0.25;;;12.30;66.60;;;;;;7783532;22;20052;-77
2023/12/23 03:01:38;;;;;;;0.28;0.20;;;12.20;66.40;;;;;;7758371;22;20007;-76
2023/12/23 03:04:39;;;;;;;0.35;0.30;;;12.20;66.40;;;;;;7757842;22;20125;-77
2023/12/23 03:07:41;;;;;;;1.63;0.43;;;12.10;66.60;;;;;;7758469;22;19995;-77
2023/12/23 03:10:42;;;;;;;0.20;0.20;;;12.00;66.50;;;;;;7757606;22;20052;-75
2023/12/23 03:13:43;;;;;;;0.20;0.20;;;12.00;66.30;;;;;;7757466;22;20433;-77
2023/12/23 03:16:44;;;;;;;0.10;0.10;;;11.90;66.50;;;;;;7783373;22;20004;-76
2023/12/23 03:19:45;;;;;;;0.40;0.30;;;11.90;66.60;;;;;;7782659;22;20068;-77
2023/12/23 03:22:46;;;;;;;0.50;0.20;;;11.90;66.80;;;;;;7757787;22;20435;-77
2023/12/23 03:25:47;;;;;;;1.90;0.45;;;11.90;66.70;;;;;;7731821;22;20000;-77
2023/12/23 03:28:48;;;;;;;0.95;0.35;;;11.90;66.40;;;;;;7782582;22;20092;-77
2023/12/23 03:31:49;;;;;;;0.32;0.30;;;11.90;66.50;;;;;;7782176;22;20450;-75
2023/12/23 03:34:50;;;;;;;1.38;0.45;;;11.80;66.50;;;;;;7810218;22;20003;-78
2023/12/23 03:37:51;;;;;;;2.20;0.30;;;11.90;66.50;;;;;;7782356;22;20007;-76
2023/12/23 03:40:53;;;;;;;0.60;0.40;;;11.80;66.20;;;;;;7756703;22;20036;-75
2023/12/23 03:43:54;;;;;;;0.35;0.35;;;11.80;66.20;;;;;;7757185;22;20029;-76
2023/12/23 03:46:56;;;;;;;0.35;0.35;;;11.80;66.30;;;;;;7810377;22;20003;-77
2023/12/23 03:49:57;;;;;;;2.75;0.57;;;11.80;66.00;;;;;;7757210;22;20010;-78
2023/12/23 03:52:57;;;;;;;1.10;0.20;;;11.80;66.00;;;;;;7756261;22;20011;-77
2023/12/23 03:56:00;;;;;;;0.45;0.28;;;11.90;66.10;;;;;;7756819;22;20064;-76
2023/12/23 03:59:00;;;;;;;1.27;0.25;;;11.90;66.00;;;;;;7756737;22;20044;-76
2023/12/23 04:02:03;;;;;;;0.40;0.30;;;11.90;65.90;;;;;;7782737;22;20175;-76
2023/12/23 04:05:04;;;;;;;0.32;0.22;;;11.90;65.70;;;;;;7756779;22;20786;-76
2023/12/23 04:08:05;;;;;;;1.80;0.32;;;11.90;65.50;;;;;;7781594;22;20177;-76
2023/12/23 04:11:07;;;;;;;0.77;0.35;;;11.90;65.40;;;;;;7757680;22;20007;-77
2023/12/23 04:14:09;;;;;;;0.63;0.32;;;11.90;65.30;;;;;;7758692;22;20039;-77
2023/12/23 04:17:11;;;;;;;2.75;0.30;;;11.90;65.50;;;;;;7783221;22;20076;-77
2023/12/23 04:20:12;;;;;;;0.38;0.38;;;11.90;65.40;;;;;;7810286;22;19996;-77
2023/12/23 04:23:13;;;;;;;1.85;0.82;;;11.80;65.50;;;;;;7756892;22;20018;-77
2023/12/23 04:26:14;;;;;;;0.65;0.50;;;11.80;66.00;;;;;;7731842;22;20011;-76
2023/12/23 04:29:16;;;;;;;1.95;0.65;;;11.80;66.30;;;;;;7756937;22;20098;-77
2023/12/23 04:32:17;;;;;;;0.70;0.50;;;11.70;66.50;;;;;;7757653;22;20092;-78
2023/12/23 04:35:18;;;;;;;5.25;0.80;;;11.70;66.90;;;;;;7783469;22;20039;-77
2023/12/23 04:38:20;;;;;;;0.45;0.40;;;11.70;67.10;;;;;;7784251;22;20152;-76
2023/12/23 04:41:21;;;;;;;1.90;0.80;;;11.70;67.40;;;;;;7759163;22;20405;-76
2023/12/23 04:44:22;;;;;;;1.13;0.88;;;11.60;67.70;;;;;;7785142;22;20011;-77
2023/12/23 04:47:23;;;;;;;1.65;0.80;;;11.70;67.90;;;;;;7759509;22;20018;-77
2023/12/23 04:50:24;;;;;;;1.20;0.75;;;11.60;68.00;;;;;;7759846;22;20398;-75
2023/12/23 04:53:24;;;;;;;0.52;0.40;;;11.70;68.20;;;;;;7759310;22;20081;-75
2023/12/23 05:00:55;;;;;;;4.65;0.95;;;11.60;68.20;;;;;;7812942;22;20015;-76
2023/12/23 05:03:58;;;;;;;1.70;1.02;;;11.60;68.20;;;;;;7735253;22;20023;-76
2023/12/23 05:06:59;;;;;;;1.10;0.75;;;11.50;68.20;;;;;;7759284;22;20453;-77
2023/12/23 05:10:00;;;;;;;1.30;0.60;;;11.50;68.30;;;;;;7759157;22;20007;-76
2023/12/23 05:13:01;;;;;;;1.38;0.90;;;11.50;68.40;;;;;;7784716;22;20366;-77
2023/12/23 05:16:02;;;;;;;2.47;1.08;;;11.60;68.50;;;;;;7785340;22;20049;-77
2023/12/23 05:19:03;;;;;;;0.75;0.50;;;11.60;68.40;;;;;;7785165;22;20090;-77
2023/12/23 05:22:04;;;;;;;3.72;0.95;;;11.60;68.10;;;;;;7759619;22;20003;-76
2023/12/23 05:25:05;;;;;;;0.57;0.40;;;11.60;68.10;;;;;;7785349;22;20007;-76
2023/12/23 05:28:06;;;;;;;1.52;0.45;;;11.60;68.00;;;;;;7784258;22;20024;-76
2023/12/23 05:31:07;;;;;;;0.63;0.60;;;11.60;67.70;;;;;;7784890;22;20290;-77
2023/12/23 05:34:08;;;;;;;1.58;0.40;;;11.60;67.50;;;;;;7812103;22;20011;-76
2023/12/23 05:37:09;;;;;;;4.07;0.40;;;11.60;67.20;;;;;;7784916;22;20015;-76
2023/12/23 05:40:10;;;;;;;7.05;1.50;;;11.70;66.80;;;;;;7758179;22;20087;-75
2023/12/23 05:43:11;;;;;;;1.00;0.43;;;11.70;66.60;;;;;;7784047;22;20470;-77
2023/12/23 05:46:12;;;;;;;0.52;0.40;;;11.80;66.00;;;;;;7812482;22;20032;-77
2023/12/23 05:49:12;;;;;;;1.05;0.57;;;11.80;65.80;;;;;;7757775;22;20003;-77
2023/12/23 05:52:14;;;;;;;1.05;0.35;;;11.90;65.50;;;;;;7812053;22;20331;-77
2023/12/23 05:55:15;;;;;;;5.78;0.60;;;11.90;65.10;;;;;;7784184;22;21516;-76
2023/12/23 05:58:16;;;;;;;0.28;0.22;;;12.00;65.20;;;;;;7812093;22;20497;-76
2023/12/23 06:01:17;;;;;;;0.88;0.60;;;12.00;65.10;;;;;;7811736;22;20072;-76
2023/12/23 06:04:18;;;;;;;1.13;0.77;;;12.10;65.00;;;;;;7758740;22;20015;-76
2023/12/23 06:07:19;;;;;;;8.50;0.75;;;12.10;65.00;;;;;;7784765;22;20419;-76
2023/12/23 06:10:21;;;;;;;7.30;0.52;;;12.10;64.70;;;;;;7784397;22;20031;-77
2023/12/23 06:13:22;;;;;;;2.97;0.73;;;12.00;64.80;;;;;;7758245;22;20660;-77
2023/12/23 06:16:23;;;;;;;5.88;0.63;;;12.10;65.00;;;;;;7759136;22;20086;-78
2023/12/23 06:19:24;;;;;;;3.28;0.50;;;12.00;65.00;;;;;;7783618;22;20040;-77
2023/12/23 06:22:25;;;;;;;1.25;0.77;;;11.90;64.80;;;;;;7758281;22;20421;-76
2023/12/23 06:25:26;;;;;;;1.48;0.70;;;11.90;65.00;;;;;;7784822;22;20003;-78
2023/12/23 06:28:27;;;;;;;2.47;0.80;;;11.80;65.30;;;;;;7784282;22;20090;-77
2023/12/23 06:31:30;;;;;;;1.02;0.40;;;11.70;65.70;;;;;;7758595;22;20118;-77
2023/12/23 06:34:31;;;;;;;1.23;0.30;;;11.60;65.90;;;;;;7813213;22;20014;-77
2023/12/23 06:37:32;;;;;;;2.40;0.55;;;11.60;66.90;;;;;;7758324;22;20007;-77
2023/12/23 06:40:33;;;;;;;6.47;1.25;;;11.50;66.20;;;;;;7783666;22;19996;-77
2023/12/23 06:43:34;;;;;;;3.15;0.90;;;11.60;66.40;;;;;;7811533;22;20078;-77
2023/12/23 06:46:35;;;;;;;2.65;0.47;;;11.60;66.50;;;;;;7758149;22;20442;-80
2023/12/23 06:49:36;;;;;;;0.60;0.40;;;11.60;66.60;;;;;;7783276;22;19999;-77
2023/12/23 06:52:38;;;;;;;4.03;0.47;;;11.60;66.60;;;;;;7783999;22;19995;-77
2023/12/23 06:55:39;;;;;;;0.20;0.20;;;11.60;66.50;;;;;;7811779;22;20011;-77
2023/12/23 06:58:40;;;;;;;2.63;0.47;;;11.60;66.50;;;;;;7758574;22;20090;-77
2023/12/23 07:01:41;;;;;;;0.20;0.20;;;11.60;66.50;;;;;;7812387;22;19995;-78
2023/12/23 07:04:42;;;;;;;1.02;0.40;;;11.70;66.60;;;;;;7784081;22;20038;-78
2023/12/23 07:07:45;;;;;;;0.55;0.20;;;11.70;66.70;;;;;;7733739;22;20048;-77
2023/12/23 07:10:46;;;;;;;0.52;0.40;;;11.70;66.60;;;;;;7812327;22;20007;-79
2023/12/23 07:13:48;;;;;;;1.20;0.60;;;11.70;66.40;;;;;;7759027;22;20064;-76
2023/12/23 07:16:49;;;;;;;3.85;1.10;;;11.70;66.10;;;;;;7758669;22;19999;-78
2023/12/23 07:19:52;;;;;;;0.63;0.60;;;11.70;66.10;;;;;;7812012;22;19996;-78
2023/12/23 07:22:52;;;;;;;1.52;0.75;;;11.70;66.20;;;;;;7757940;22;20015;-78
2023/12/23 07:25:55;;;;;;;1.10;0.70;;;11.70;66.20;;;;;;7784257;22;19999;-76
2023/12/23 07:28:57;;;;;;;3.20;1.00;;;11.60;66.30;;;;;;7757748;22;19999;-78
2023/12/23 07:31:57;;;;;;;0.82;0.70;;;11.60;66.40;;;;;;7784160;22;20428;-77
2023/12/23 07:35:03;;;;;;;3.92;1.00;;;11.60;66.40;;;;;;7784614;22;20026;-78
2023/12/23 07:38:06;;;;;;;0.98;0.70;;;11.60;66.60;;;;;;7760958;22;20043;-79
2023/12/23 07:41:08;;;;;;;0.90;0.40;;;11.50;66.60;;;;;;7759850;22;20543;-77
2023/12/23 07:44:10;;;;;;;1.52;0.82;;;11.50;66.60;;;;;;7784575;22;20025;-78
2023/12/23 07:47:12;;;;;;;1.75;0.90;;;11.50;66.70;;;;;;7758570;22;20026;-78
2023/12/23 07:50:13;;;;;;;2.20;0.73;;;11.60;66.60;;;;;;7783870;22;20531;-77
2023/12/23 07:53:14;;;;;;;6.07;1.02;;;11.50;66.70;;;;;;7782792;22;20055;-76
2023/12/23 07:56:15;;;;;;;7.50;2.83;;;11.50;66.70;;;;;;7783536;22;20010;-77
2023/12/23 07:59:16;;;;;;;2.75;0.55;;;11.60;66.70;;;;;;7757518;22;20011;-77
2023/12/23 08:02:18;;;;;;;2.03;0.93;;;11.60;66.70;;;;;;7783374;22;20121;-77
2023/12/23 08:05:19;;;;;;;2.33;0.60;;;11.70;66.80;;;;;;7757945;22;20034;-77
2023/12/23 08:08:20;;;;;;;2.58;1.33;;;11.70;66.50;;;;;;7758004;22;20250;-77
2023/12/23 08:11:22;;;;;;;3.30;1.33;;;11.80;66.50;;;;;;7810620;22;20057;-78
2023/12/23 08:14:23;;;;;;;4.15;1.13;;;11.70;66.40;;;;;;7782959;22;20140;-76
2023/12/23 08:17:24;;;;;;;1.67;0.75;;;11.70;66.60;;;;;;7757642;22;20082;-76
2023/12/23 08:20:25;;;;;;;3.78;1.15;;;11.70;66.60;;;;;;7757199;22;20137;-77
2023/12/23 08:23:26;;;;;;;5.32;1.45;;;11.70;66.60;;;;;;7782546;22;20003;-77
2023/12/23 08:26:27;;;;;;;1.40;1.20;;;11.70;66.80;;;;;;7781392;22;20007;-77
2023/12/23 08:29:29;;;;;;;1.77;1.42;;;11.70;66.90;;;;;;7809405;22;20082;-77
2023/12/23 08:32:30;;;;;;;1.58;0.70;;;11.80;66.90;;;;;;7756589;22;20360;-77
2023/12/23 08:35:32;;;;;;;3.25;1.13;;;11.80;66.70;;;;;;7783394;22;20015;-76
2023/12/23 08:38:33;;;;;;;1.48;0.90;;;11.80;66.70;;;;;;7782834;22;21681;-77
2023/12/23 08:41:37;;;;;;;0.65;0.60;;;11.80;66.50;;;;;;7782253;22;19999;-78
2023/12/23 08:44:37;;;;;;;2.35;0.93;;;11.90;66.70;;;;;;7783242;22;20107;-76
2023/12/23 08:47:38;;;;;;;4.25;2.08;;;11.90;66.60;;;;;;7783616;22;20007;-76
2023/12/23 08:50:40;;;;;;;2.63;1.10;;;12.00;66.60;;;;;;7782855;22;20086;-77
2023/12/23 08:53:41;;;;;;;1.08;0.80;;;12.10;66.50;;;;;;7782895;22;20285;-77
2023/12/23 08:56:42;;;;;;;1.10;0.88;;;12.20;66.30;;;;;;7783676;22;20072;-77
2023/12/23 08:59:44;;;;;;;5.05;1.20;;;12.30;66.10;;;;;;7810944;22;21647;-76
2023/12/23 09:02:46;;;;;;;3.90;1.10;;;12.30;65.90;;;;;;7783558;22;19999;-75
2023/12/23 09:05:47;;;;;;;7.78;1.85;;;12.40;65.80;;;;;;7787922;22;20014;-76
2023/12/23 09:08:51;;;;;;;4.97;1.27;;;12.50;65.40;;;;;;7782455;22;19999;-77
2023/12/23 09:11:52;;;;;;;3.50;1.00;;;12.60;65.20;;;;;;7810364;22;20000;-77
2023/12/23 09:14:53;;;;;;;3.03;1.50;;;12.70;64.80;;;;;;7782503;22;20045;-78
2023/12/23 09:17:56;;;;;;;1.27;0.80;;;12.80;64.70;;;;;;7782653;22;20101;-77
2023/12/23 09:20:57;;;;;;;1.90;1.25;;;12.90;64.40;;;;;;7812418;22;20422;-77
2023/12/23 09:23:58;;;;;;;2.72;1.70;;;13.00;64.00;;;;;;7758280;22;20015;-78
2023/12/23 09:26:59;;;;;;;5.65;1.10;;;13.10;63.70;;;;;;7813441;22;20029;-77
2023/12/23 09:30:02;;;;;;;1.88;1.15;;;13.10;63.60;;;;;;7784781;22;20440;-76
2023/12/23 09:33:06;;;;;;;5.63;1.50;;;13.10;63.40;;;;;;7759808;22;20071;-77
2023/12/23 09:36:07;;;;;;;11.63;1.80;;;13.10;63.00;;;;;;7733948;22;20748;-77
2023/12/23 09:39:08;;;;;;;2.33;1.33;;;13.20;62.70;;;;;;7784370;22;20177;-78
2023/12/23 09:42:10;;;;;;;5.13;1.83;;;13.20;62.20;;;;;;7759924;22;20313;-76
2023/12/23 09:45:14;;;;;;;2.03;1.27;;;13.20;62.50;;;;;;7785166;22;20488;-78
2023/12/23 09:48:15;;;;;;;12.85;2.38;;;13.30;62.60;;;;;;7812744;22;20021;-76
2023/12/23 09:51:17;;;;;;;3.17;1.67;;;13.30;62.60;;;;;;7812098;22;20428;-76
2023/12/23 09:54:21;;;;;;;1.75;1.13;;;13.40;62.60;;;;;;7784627;22;20021;-77
2023/12/23 09:57:22;;;;;;;4.18;1.75;;;13.50;62.10;;;;;;7784889;22;20003;-77
2023/12/23 10:00:23;;;;;;;6.43;1.67;;;13.50;61.90;;;;;;7811946;22;20409;-75
2023/12/23 10:03:24;;;;;;;5.53;2.22;;;13.60;61.90;;;;;;7784226;22;20127;-75
2023/12/23 10:06:26;;;;;;;9.40;3.80;;;13.80;61.40;;;;;;7758449;22;20011;-79
2023/12/23 10:09:32;;;;;;;4.03;2.42;;;14.10;60.60;;;;;;7759048;22;20027;-76
2023/12/23 10:12:33;;;;;;;7.43;1.80;;;14.30;60.00;;;;;;7785048;22;20003;-76
2023/12/23 10:15:34;;;;;;;4.05;1.77;;;14.30;59.60;;;;;;7758249;22;20085;-77
2023/12/23 10:18:38;;;;;;;1.13;0.93;;;14.40;59.80;;;;;;7758331;22;20599;-77
2023/12/23 10:21:41;;;;;;;4.25;1.75;;;14.40;59.70;;;;;;7758232;22;20018;-76
2023/12/23 10:24:42;;;;;;;13.95;1.73;;;14.60;59.60;;;;;;7759041;22;20003;-78
2023/12/23 10:27:53;;;;;;;3.40;1.60;;;14.60;59.50;;;;;;7758740;22;20539;-77
2023/12/23 10:31:01;;;;;;;2.90;1.80;;;14.60;59.60;;;;;;7758730;22;20080;-76
2023/12/23 10:34:10;;;;;;;5.75;2.40;;;14.70;59.50;;;;;;7758290;22;20109;-77
2023/12/23 10:37:11;;;;;;;4.78;2.03;;;14.80;59.40;;;;;;7783654;22;20432;-77
2023/12/23 10:40:20;;;;;;;3.83;1.48;;;14.90;59.40;;;;;;7785034;22;20157;-78
2023/12/23 10:43:24;;;;;;;4.97;1.45;;;15.10;59.00;;;;;;7786037;22;20013;-78
2023/12/23 10:46:26;;;;;;;5.75;1.60;;;15.40;58.30;;;;;;7759842;22;20160;-76
2023/12/23 10:49:28;;;;;;;3.90;1.60;;;15.60;57.80;;;;;;7782444;22;20386;-77
2023/12/23 10:52:31;;;;;;;1.55;1.17;;;15.90;58.00;;;;;;7812574;22;20057;-77
2023/12/23 10:55:33;;;;;;;3.35;1.40;;;16.50;56.30;;;;;;7783609;22;20072;-78
2023/12/23 10:58:35;;;;;;;2.38;1.30;;;17.00;55.00;;;;;;7757711;22;20011;-77
2023/12/23 11:01:39;;;;;;;3.22;1.45;;;17.30;54.40;;;;;;7784377;22;20506;-77
2023/12/23 11:04:47;;;;;;;4.85;1.50;;;17.30;54.20;;;;;;7810672;22;20006;-77
2023/12/23 11:07:51;;;;;;;1.63;1.00;;;17.20;53.90;;;;;;7759171;22;20034;-76
2023/12/23 11:10:52;;;;;;;8.23;1.10;;;16.90;53.80;;;;;;7784989;22;19999;-76
2023/12/23 11:13:55;;;;;;;1.08;0.90;;;16.60;54.10;;;;;;7782470;22;20011;-77
2023/12/23 11:16:58;;;;;;;2.83;1.20;;;16.80;54.10;;;;;;7782860;22;20005;-76
2023/12/23 11:20:00;;;;;;;1.35;1.10;;;17.50;52.40;;;;;;7783648;22;20031;-77
2023/12/23 11:23:26;;;;;;;2.17;1.45;;;18.40;50.70;;;;;;7784195;22;19991;-78
2023/12/23 11:26:42;;;;;;;3.38;0.80;;;19.20;49.20;;;;;;7783642;22;19995;-77
2023/12/23 11:29:43;;;;;;;4.05;1.45;;;19.50;47.70;;;;;;7783249;22;20157;-79
2023/12/23 11:32:44;;;;;;;2.05;1.17;;;19.00;47.20;;;;;;7783174;22;20078;-76
2023/12/23 11:35:49;;;;;;;9.45;1.35;;;18.30;48.30;;;;;;7782984;22;20377;-75
2023/12/23 11:38:51;;;;;;;5.05;1.08;;;17.80;49.80;;;;;;7782264;22;20014;-78
2023/12/23 11:41:58;;;;;;;2.40;0.52;;;17.30;50.10;;;;;;7756990;22;20164;-77
2023/12/23 11:45:02;;;;;;;1.63;1.10;;;16.90;50.50;;;;;;7756655;22;20010;-76
2023/12/23 11:48:05;;;;;;;1.38;0.60;;;16.60;51.00;;;;;;7783198;22;20003;-77
2023/12/23 11:51:07;;;;;;;2.85;0.65;;;16.40;51.40;;;;;;7783069;22;20011;-76
2023/12/23 11:54:08;;;;;;;2.13;1.00;;;16.20;51.80;;;;;;7782793;22;20038;-79
2023/12/23 11:57:09;;;;;;;0.90;0.55;;;16.10;52.20;;;;;;7757061;22;19999;-78
2023/12/23 12:00:11;;;;;;;1.40;0.88;;;15.90;52.40;;;;;;7811667;22;19995;-77
2023/12/23 12:03:12;;;;;;;1.65;0.70;;;15.80;52.70;;;;;;7811530;22;20105;-78
2023/12/23 12:06:16;;;;;;;2.63;0.60;;;15.60;52.90;;;;;;7782471;22;20371;-77
2023/12/23 12:09:17;;;;;;;1.02;0.80;;;15.60;52.90;;;;;;7782950;22;20613;-78
2023/12/23 12:12:19;;;;;;;1.88;0.82;;;15.60;53.10;;;;;;7782810;22;20003;-77
2023/12/23 12:15:21;;;;;;;1.20;0.80;;;15.60;53.10;;;;;;7783187;22;20061;-78
2023/12/23 12:18:23;;;;;;;0.40;0.40;;;15.60;53.10;;;;;;7783483;22;20003;-77
2023/12/23 12:21:24;;;;;;;0.80;0.60;;;15.70;53.00;;;;;;7732553;22;20003;-76
2023/12/23 12:24:26;;;;;;;2.63;0.80;;;15.70;52.90;;;;;;7810280;22;20071;-78
2023/12/23 12:27:27;;;;;;;4.78;0.95;;;15.70;52.90;;;;;;7782412;22;20039;-77
2023/12/23 12:30:29;;;;;;;5.50;0.88;;;15.70;53.20;;;;;;7809889;22;20368;-77
2023/12/23 12:33:31;;;;;;;0.93;0.60;;;15.70;53.20;;;;;;7782685;22;20582;-77
2023/12/23 12:36:32;;;;;;;4.28;0.73;;;15.70;53.10;;;;;;7757496;22;20373;-76
2023/12/23 12:39:33;;;;;;;1.88;0.77;;;15.70;53.90;;;;;;7757546;22;20061;-76
2023/12/23 12:42:35;;;;;;;4.28;1.30;;;15.60;53.10;;;;;;7810435;22;20070;-79
2023/12/23 12:45:37;;;;;;;2.05;1.15;;;15.60;53.30;;;;;;7782016;22;19999;-77
2023/12/23 12:48:39;;;;;;;1.35;0.88;;;15.50;53.50;;;;;;7781485;22;20098;-77
2023/12/23 12:51:43;;;;;;;1.20;0.80;;;15.50;53.50;;;;;;7756836;22;20043;-78
2023/12/23 12:54:45;;;;;;;2.13;0.88;;;15.40;53.30;;;;;;7756668;22;20019;-76
2023/12/23 12:57:46;;;;;;;1.70;1.05;;;15.30;53.40;;;;;;7758229;22;20050;-77
2023/12/23 13:00:53;;;;;;;1.58;0.93;;;15.30;53.80;;;;;;7784202;22;20009;-78
2023/12/23 13:03:55;;;;;;;2.90;1.13;;;15.30;54.10;;;;;;7761947;22;20014;-77
2023/12/23 13:06:57;;;;;;;1.48;0.55;;;15.40;54.20;;;;;;7761087;22;20023;-79
2023/12/23 13:09:58;;;;;;;1.00;0.63;;;15.40;54.10;;;;;;7785941;22;20436;-77
2023/12/23 13:13:00;;;;;;;2.45;0.60;;;15.40;54.60;;;;;;7785541;22;20007;-77
2023/12/23 13:16:03;;;;;;;0.77;0.47;;;15.40;53.80;;;;;;7813355;22;20024;-77
2023/12/23 13:19:04;;;;;;;0.45;0.30;;;15.40;53.40;;;;;;7783823;22;20055;-78
2023/12/23 13:22:05;;;;;;;0.85;0.63;;;15.40;53.40;;;;;;7758886;22;20049;-78
2023/12/23 13:25:09;;;;;;;2.13;0.80;;;15.30;53.10;;;;;;7783490;22;20011;-79
2023/12/23 13:28:10;;;;;;;1.30;0.50;;;15.20;52.90;;;;;;7812106;22;20106;-77
2023/12/23 13:31:13;;;;;;;1.05;0.55;;;15.20;53.10;;;;;;7784505;22;20003;-77
2023/12/23 13:34:15;;;;;;;0.40;0.40;;;15.00;53.10;;;;;;7784862;22;20089;-76
2023/12/23 13:37:16;;;;;;;0.70;0.47;;;15.10;53.20;;;;;;7770905;22;19995;-77
2023/12/23 13:40:18;;;;;;;0.68;0.63;;;15.00;53.10;;;;;;7772719;22;19999;-76
2023/12/23 13:43:19;;;;;;;0.95;0.50;;;14.90;53.10;;;;;;7784307;22;20082;-78
2023/12/23 13:46:21;;;;;;;2.38;0.93;;;14.90;53.40;;;;;;7811928;22;20306;-77
2023/12/23 13:49:22;;;;;;;0.65;0.45;;;14.80;53.20;;;;;;7757769;22;20095;-78
2023/12/23 13:52:25;;;;;;;0.40;0.40;;;14.70;53.30;;;;;;7758735;22;20064;-78
2023/12/23 13:55:26;;;;;;;1.77;0.55;;;14.60;53.40;;;;;;7812397;22;20007;-77
2023/12/23 13:58:27;;;;;;;1.67;0.70;;;14.50;53.60;;;;;;7783318;22;20452;-78
2023/12/23 14:01:28;;;;;;;1.50;0.93;;;14.50;53.80;;;;;;7758370;22;20102;-77
2023/12/23 14:04:30;;;;;;;1.23;0.70;;;14.50;54.10;;;;;;7825084;22;20081;-78
2023/12/23 14:07:31;;;;;;;2.67;0.73;;;14.50;54.20;;;;;;7792653;22;20093;-78
2023/12/23 14:10:32;;;;;;;1.08;0.70;;;14.40;54.10;;;;;;7758754;22;20026;-77
2023/12/23 14:13:34;;;;;;;1.58;0.43;;;14.40;54.20;;;;;;7783702;22;20421;-77
2023/12/23 14:16:34;;;;;;;3.22;0.98;;;14.40;54.20;;;;;;7784302;22;20000;-77
2023/12/23 14:19:35;;;;;;;1.08;0.85;;;14.50;54.30;;;;;;7811268;22;20026;-77
2023/12/23 14:22:36;;;;;;;0.85;0.65;;;14.50;54.40;;;;;;7783436;22;20408;-79
2023/12/23 14:25:37;;;;;;;1.70;0.85;;;14.50;54.30;;;;;;7756791;22;20003;-77
2023/12/23 14:28:39;;;;;;;2.13;0.68;;;14.40;54.00;;;;;;7783711;22;20380;-77
2023/12/23 14:31:40;;;;;;;0.55;0.52;;;14.40;53.90;;;;;;7757732;22;20072;-78
2023/12/23 14:34:41;;;;;;;0.95;0.50;;;14.30;53.50;;;;;;7758209;22;20011;-76
2023/12/23 14:37:41;;;;;;;0.90;0.55;;;14.20;53.80;;;;;;7758331;22;20083;-78
2023/12/23 14:40:42;;;;;;;1.27;0.63;;;14.30;53.80;;;;;;7783747;22;20302;-78
2023/12/23 14:43:44;;;;;;;0.95;0.60;;;14.20;53.70;;;;;;7783072;22;20089;-77
2023/12/23 14:46:46;;;;;;;2.15;0.77;;;14.20;53.40;;;;;;7784019;22;20382;-78
2023/12/23 14:49:47;;;;;;;1.65;0.60;;;14.20;53.30;;;;;;7782615;22;20035;-77
2023/12/23 14:52:48;;;;;;;0.40;0.40;;;14.10;53.30;;;;;;7811292;22;20078;-78
2023/12/23 14:55:50;;;;;;;0.30;0.30;;;14.10;53.30;;;;;;7782879;22;20007;-78
2023/12/23 14:58:52;;;;;;;1.95;0.70;;;14.10;53.30;;;;;;7784864;22;20446;-78
2023/12/23 15:01:53;;;;;;;0.35;0.35;;;14.10;53.30;;;;;;7759369;22;20150;-77
2023/12/23 15:05:00;;;;;;;0.30;0.30;;;14.10;52.80;;;;;;7811789;22;20004;-77
2023/12/23 15:08:01;;;;;;;1.02;0.70;;;14.10;52.90;;;;;;7758294;22;20008;-78
2023/12/23 15:11:04;;;;;;;1.30;0.68;;;14.10;52.90;;;;;;7757958;22;20421;-77
2023/12/23 15:14:05;;;;;;;1.95;0.85;;;14.10;53.00;;;;;;7759364;22;20110;-78
2023/12/23 15:17:07;;;;;;;0.85;0.40;;;14.10;52.80;;;;;;7811507;22;20075;-78
2023/12/23 15:20:08;;;;;;;2.70;0.75;;;14.10;52.60;;;;;;7811567;22;19995;-77
2023/12/23 15:23:09;;;;;;;1.40;0.85;;;14.00;52.50;;;;;;7732386;22;20010;-77
2023/12/23 15:26:11;;;;;;;0.73;0.55;;;14.00;52.70;;;;;;7782975;22;19999;-78
2023/12/23 15:29:12;;;;;;;2.55;1.48;;;13.90;52.70;;;;;;7757755;22;19999;-77
2023/12/23 15:32:13;;;;;;;4.22;0.98;;;13.90;52.90;;;;;;7810487;22;20003;-77
2023/12/23 15:35:14;;;;;;;1.15;0.60;;;14.00;52.80;;;;;;7757378;22;20120;-76
2023/12/23 15:38:16;;;;;;;0.68;0.63;;;13.90;52.70;;;;;;7811631;22;20003;-79
2023/12/23 15:41:17;;;;;;;2.05;0.77;;;13.90;52.80;;;;;;7757433;22;20008;-78
2023/12/23 15:44:18;;;;;;;1.27;0.60;;;13.80;53.00;;;;;;7782816;22;20764;-76
2023/12/23 15:47:20;;;;;;;0.93;0.60;;;13.80;53.10;;;;;;7783837;22;20134;-78
2023/12/23 15:50:22;;;;;;;1.15;0.73;;;13.80;53.10;;;;;;7811628;22;20010;-77